sensor_id;sensor_type;location;lat;lon;timestamp;pressure;altitude;pressure_sealevel;temperature
20736;BMP180;10528;52.124;5.196;2023-12-20T00:02:16;101436.00;;;13.20
20736;BMP180;10528;52.124;5.196;2023-12-20T00:04:43;101425.00;;;13.10
20736;BMP180;10528;52.124;5.196;2023-12-20T00:07:10;101429.00;;;13.10
20736;BMP180;10528;52.124;5.196;2023-12-20T00:09:37;101438.00;;;13.00
20736;BMP180;10528;52.124;5.196;2023-12-20T00:12:05;101422.00;;;13.00
20736;BMP180;10528;52.124;5.196;2023-12-20T00:14:32;101414.00;;;13.00
20736;BMP180;10528;52.124;5.196;2023-12-20T00:16:58;101425.00;;;13.00
20736;BMP180;10528;52.124;5.196;2023-12-20T00:19:25;101425.00;;;13.00
20736;BMP180;10528;52.124;5.196;2023-12-20T00:21:52;101419.00;;;13.00
20736;BMP180;10528;52.124;5.196;2023-12-20T00:24:19;101403.00;;;12.90
20736;BMP180;10528;52.124;5.196;2023-12-20T00:26:47;101405.00;;;12.90
20736;BMP180;10528;52.124;5.196;2023-12-20T00:29:14;101404.00;;;12.90
20736;BMP180;10528;52.124;5.196;2023-12-20T00:31:41;101414.00;;;12.90
20736;BMP180;10528;52.124;5.196;2023-12-20T00:34:08;101422.00;;;12.90
20736;BMP180;10528;52.124;5.196;2023-12-20T00:36:35;101422.00;;;12.90
20736;BMP180;10528;52.124;5.196;2023-12-20T00:39:02;101427.00;;;12.90
20736;BMP180;10528;52.124;5.196;2023-12-20T00:41:30;101417.00;;;12.80
20736;BMP180;10528;52.124;5.196;2023-12-20T00:43:56;101423.00;;;12.80
20736;BMP180;10528;52.124;5.196;2023-12-20T00:46:23;101410.00;;;12.80
20736;BMP180;10528;52.124;5.196;2023-12-20T00:48:50;101417.00;;;12.80
20736;BMP180;10528;52.124;5.196;2023-12-20T00:51:17;101413.00;;;12.80
20736;BMP180;10528;52.124;5.196;2023-12-20T00:53:44;101416.00;;;12.80
20736;BMP180;10528;52.124;5.196;2023-12-20T00:56:12;101418.00;;;12.80
20736;BMP180;10528;52.124;5.196;2023-12-20T00:58:39;101424.00;;;12.80
20736;BMP180;10528;52.124;5.196;2023-12-20T01:01:06;101418.00;;;12.80
20736;BMP180;10528;52.124;5.196;2023-12-20T01:03:33;101421.00;;;12.80
20736;BMP180;10528;52.124;5.196;2023-12-20T01:06:00;101415.00;;;12.80
20736;BMP180;10528;52.124;5.196;2023-12-20T01:08:27;101406.00;;;12.80
20736;BMP180;10528;52.124;5.196;2023-12-20T01:10:53;101399.00;;;12.80
20736;BMP180;10528;52.124;5.196;2023-12-20T01:13:20;101399.00;;;12.80
20736;BMP180;10528;52.124;5.196;2023-12-20T01:15:47;101394.00;;;12.80
20736;BMP180;10528;52.124;5.196;2023-12-20T01:18:14;101413.00;;;12.80
20736;BMP180;10528;52.124;5.196;2023-12-20T01:20:41;101421.00;;;12.80
20736;BMP180;10528;52.124;5.196;2023-12-20T01:23:09;101421.00;;;12.80
20736;BMP180;10528;52.124;5.196;2023-12-20T01:25:36;101426.00;;;12.80
20736;BMP180;10528;52.124;5.196;2023-12-20T01:28:03;101432.00;;;12.90
20736;BMP180;10528;52.124;5.196;2023-12-20T01:30:31;101420.00;;;12.90
20736;BMP180;10528;52.124;5.196;2023-12-20T01:33:00;101424.00;;;12.90
20736;BMP180;10528;52.124;5.196;2023-12-20T01:35:28;101421.00;;;12.90
20736;BMP180;10528;52.124;5.196;2023-12-20T01:37:54;101408.00;;;12.90
20736;BMP180;10528;52.124;5.196;2023-12-20T01:40:24;101397.00;;;12.90
20736;BMP180;10528;52.124;5.196;2023-12-20T01:43:08;101407.00;;;12.80
20736;BMP180;10528;52.124;5.196;2023-12-20T01:45:35;101408.00;;;12.90
20736;BMP180;10528;52.124;5.196;2023-12-20T01:48:05;101407.00;;;12.90
20736;BMP180;10528;52.124;5.196;2023-12-20T01:50:35;101407.00;;;12.90
20736;BMP180;10528;52.124;5.196;2023-12-20T01:53:05;101408.00;;;12.90
20736;BMP180;10528;52.124;5.196;2023-12-20T01:55:36;101405.00;;;12.90
20736;BMP180;10528;52.124;5.196;2023-12-20T01:58:07;101411.00;;;12.90
20736;BMP180;10528;52.124;5.196;2023-12-20T02:00:36;101408.00;;;12.90
20736;BMP180;10528;52.124;5.196;2023-12-20T02:03:04;101400.00;;;12.80
20736;BMP180;10528;52.124;5.196;2023-12-20T02:05:32;101404.00;;;12.80
20736;BMP180;10528;52.124;5.196;2023-12-20T02:08:00;101405.00;;;12.90
20736;BMP180;10528;52.124;5.196;2023-12-20T02:10:28;101408.00;;;12.90
20736;BMP180;10528;52.124;5.196;2023-12-20T02:12:55;101403.00;;;12.90
20736;BMP180;10528;52.124;5.196;2023-12-20T02:15:22;101407.00;;;12.90
20736;BMP180;10528;52.124;5.196;2023-12-20T02:17:50;101401.00;;;13.00
20736;BMP180;10528;52.124;5.196;2023-12-20T02:20:17;101411.00;;;13.00
20736;BMP180;10528;52.124;5.196;2023-12-20T02:22:44;101415.00;;;13.00
20736;BMP180;10528;52.124;5.196;2023-12-20T02:25:11;101395.00;;;13.00
20736;BMP180;10528;52.124;5.196;2023-12-20T02:27:39;101391.00;;;13.00
20736;BMP180;10528;52.124;5.196;2023-12-20T02:30:08;101399.00;;;13.10
20736;BMP180;10528;52.124;5.196;2023-12-20T02:32:35;101394.00;;;13.10
20736;BMP180;10528;52.124;5.196;2023-12-20T02:35:02;101399.00;;;13.10
20736;BMP180;10528;52.124;5.196;2023-12-20T02:37:29;101401.00;;;13.10
20736;BMP180;10528;52.124;5.196;2023-12-20T02:39:56;101395.00;;;13.10
20736;BMP180;10528;52.124;5.196;2023-12-20T02:42:23;101393.00;;;13.10
20736;BMP180;10528;52.124;5.196;2023-12-20T02:44:50;101394.00;;;13.10
20736;BMP180;10528;52.124;5.196;2023-12-20T02:47:17;101386.00;;;13.10
20736;BMP180;10528;52.124;5.196;2023-12-20T02:49:44;101387.00;;;13.10
20736;BMP180;10528;52.124;5.196;2023-12-20T02:52:11;101390.00;;;13.10
20736;BMP180;10528;52.124;5.196;2023-12-20T02:54:41;101393.00;;;13.10
20736;BMP180;10528;52.124;5.196;2023-12-20T02:57:08;101386.00;;;13.20
20736;BMP180;10528;52.124;5.196;2023-12-20T02:59:35;101377.00;;;13.20
20736;BMP180;10528;52.124;5.196;2023-12-20T03:02:02;101373.00;;;13.10
20736;BMP180;10528;52.124;5.196;2023-12-20T03:04:29;101362.00;;;13.10
20736;BMP180;10528;52.124;5.196;2023-12-20T03:06:56;101357.00;;;13.10
20736;BMP180;10528;52.124;5.196;2023-12-20T03:09:23;101360.00;;;13.10
20736;BMP180;10528;52.124;5.196;2023-12-20T03:11:49;101347.00;;;13.10
20736;BMP180;10528;52.124;5.196;2023-12-20T03:14:16;101361.00;;;13.10
20736;BMP180;10528;52.124;5.196;2023-12-20T03:16:49;101346.00;;;13.10
20736;BMP180;10528;52.124;5.196;2023-12-20T03:19:17;101356.00;;;13.10
20736;BMP180;10528;52.124;5.196;2023-12-20T03:21:44;101343.00;;;13.10
20736;BMP180;10528;52.124;5.196;2023-12-20T03:24:12;101349.00;;;13.10
20736;BMP180;10528;52.124;5.196;2023-12-20T03:26:39;101350.00;;;13.10
20736;BMP180;10528;52.124;5.196;2023-12-20T03:29:06;101361.00;;;13.10
20736;BMP180;10528;52.124;5.196;2023-12-20T03:31:32;101360.00;;;13.10
20736;BMP180;10528;52.124;5.196;2023-12-20T03:33:59;101356.00;;;13.10
20736;BMP180;10528;52.124;5.196;2023-12-20T03:36:27;101355.00;;;13.10
20736;BMP180;10528;52.124;5.196;2023-12-20T03:38:53;101360.00;;;13.10
20736;BMP180;10528;52.124;5.196;2023-12-20T03:41:21;101344.00;;;13.10
20736;BMP180;10528;52.124;5.196;2023-12-20T03:43:47;101343.00;;;13.10
20736;BMP180;10528;52.124;5.196;2023-12-20T03:46:14;101366.00;;;13.10
20736;BMP180;10528;52.124;5.196;2023-12-20T03:48:41;101360.00;;;13.10
20736;BMP180;10528;52.124;5.196;2023-12-20T03:51:08;101367.00;;;13.10
20736;BMP180;10528;52.124;5.196;2023-12-20T03:53:35;101359.00;;;13.10
20736;BMP180;10528;52.124;5.196;2023-12-20T03:56:02;101367.00;;;13.10
20736;BMP180;10528;52.124;5.196;2023-12-20T03:58:29;101355.00;;;13.10
20736;BMP180;10528;52.124;5.196;2023-12-20T04:00:56;101357.00;;;13.10
20736;BMP180;10528;52.124;5.196;2023-12-20T04:03:23;101368.00;;;13.10
20736;BMP180;10528;52.124;5.196;2023-12-20T04:05:49;101362.00;;;13.00
20736;BMP180;10528;52.124;5.196;2023-12-20T04:08:16;101373.00;;;13.10
20736;BMP180;10528;52.124;5.196;2023-12-20T04:10:43;101357.00;;;13.10
20736;BMP180;10528;52.124;5.196;2023-12-20T04:13:10;101350.00;;;13.10
20736;BMP180;10528;52.124;5.196;2023-12-20T04:15:37;101351.00;;;13.10
20736;BMP180;10528;52.124;5.196;2023-12-20T04:18:04;101356.00;;;13.10
20736;BMP180;10528;52.124;5.196;2023-12-20T04:20:31;101360.00;;;13.10
20736;BMP180;10528;52.124;5.196;2023-12-20T04:22:58;101362.00;;;13.10
20736;BMP180;10528;52.124;5.196;2023-12-20T04:25:25;101343.00;;;13.20
20736;BMP180;10528;52.124;5.196;2023-12-20T04:27:53;101345.00;;;13.20
20736;BMP180;10528;52.124;5.196;2023-12-20T04:30:20;101344.00;;;13.20
20736;BMP180;10528;52.124;5.196;2023-12-20T04:32:47;101355.00;;;13.30
20736;BMP180;10528;52.124;5.196;2023-12-20T04:35:13;101337.00;;;13.30
20736;BMP180;10528;52.124;5.196;2023-12-20T04:37:41;101333.00;;;13.30
20736;BMP180;10528;52.124;5.196;2023-12-20T04:40:08;101345.00;;;13.30
20736;BMP180;10528;52.124;5.196;2023-12-20T04:42:35;101332.00;;;13.30
20736;BMP180;10528;52.124;5.196;2023-12-20T04:45:02;101334.00;;;13.30
20736;BMP180;10528;52.124;5.196;2023-12-20T04:47:29;101337.00;;;13.30
20736;BMP180;10528;52.124;5.196;2023-12-20T04:49:56;101350.00;;;13.40
20736;BMP180;10528;52.124;5.196;2023-12-20T04:52:23;101344.00;;;13.40
20736;BMP180;10528;52.124;5.196;2023-12-20T04:54:50;101337.00;;;13.40
20736;BMP180;10528;52.124;5.196;2023-12-20T04:57:17;101339.00;;;13.40
20736;BMP180;10528;52.124;5.196;2023-12-20T04:59:44;101344.00;;;13.40
20736;BMP180;10528;52.124;5.196;2023-12-20T05:02:11;101336.00;;;13.40
20736;BMP180;10528;52.124;5.196;2023-12-20T05:04:38;101343.00;;;13.40
20736;BMP180;10528;52.124;5.196;2023-12-20T05:07:05;101335.00;;;13.50
20736;BMP180;10528;52.124;5.196;2023-12-20T05:09:32;101336.00;;;13.50
20736;BMP180;10528;52.124;5.196;2023-12-20T05:12:00;101333.00;;;13.50
20736;BMP180;10528;52.124;5.196;2023-12-20T05:14:27;101336.00;;;13.40
20736;BMP180;10528;52.124;5.196;2023-12-20T05:16:54;101344.00;;;13.50
20736;BMP180;10528;52.124;5.196;2023-12-20T05:19:21;101337.00;;;13.50
20736;BMP180;10528;52.124;5.196;2023-12-20T05:21:48;101342.00;;;13.50
20736;BMP180;10528;52.124;5.196;2023-12-20T05:24:14;101347.00;;;13.50
20736;BMP180;10528;52.124;5.196;2023-12-20T05:26:41;101350.00;;;13.50
20736;BMP180;10528;52.124;5.196;2023-12-20T05:29:08;101344.00;;;13.50
20736;BMP180;10528;52.124;5.196;2023-12-20T05:31:35;101334.00;;;13.50
20736;BMP180;10528;52.124;5.196;2023-12-20T05:34:02;101328.00;;;13.50
20736;BMP180;10528;52.124;5.196;2023-12-20T05:36:30;101340.00;;;13.50
20736;BMP180;10528;52.124;5.196;2023-12-20T05:38:56;101331.00;;;13.50
20736;BMP180;10528;52.124;5.196;2023-12-20T05:41:23;101335.00;;;13.50
20736;BMP180;10528;52.124;5.196;2023-12-20T05:43:50;101322.00;;;13.50
20736;BMP180;10528;52.124;5.196;2023-12-20T05:46:17;101339.00;;;13.50
20736;BMP180;10528;52.124;5.196;2023-12-20T05:48:44;101326.00;;;13.50
20736;BMP180;10528;52.124;5.196;2023-12-20T05:51:12;101338.00;;;13.50
20736;BMP180;10528;52.124;5.196;2023-12-20T05:53:39;101341.00;;;13.50
20736;BMP180;10528;52.124;5.196;2023-12-20T05:56:06;101333.00;;;13.60
20736;BMP180;10528;52.124;5.196;2023-12-20T05:58:33;101339.00;;;13.60
20736;BMP180;10528;52.124;5.196;2023-12-20T06:01:00;101331.00;;;13.60
20736;BMP180;10528;52.124;5.196;2023-12-20T06:03:27;101335.00;;;13.60
20736;BMP180;10528;52.124;5.196;2023-12-20T06:05:54;101334.00;;;13.60
20736;BMP180;10528;52.124;5.196;2023-12-20T06:08:36;101344.00;;;13.60
20736;BMP180;10528;52.124;5.196;2023-12-20T06:11:03;101345.00;;;13.60
20736;BMP180;10528;52.124;5.196;2023-12-20T06:13:30;101327.00;;;13.60
20736;BMP180;10528;52.124;5.196;2023-12-20T06:15:57;101337.00;;;13.60
20736;BMP180;10528;52.124;5.196;2023-12-20T06:18:25;101342.00;;;13.60
20736;BMP180;10528;52.124;5.196;2023-12-20T06:20:52;101340.00;;;13.60
20736;BMP180;10528;52.124;5.196;2023-12-20T06:23:18;101324.00;;;13.60
20736;BMP180;10528;52.124;5.196;2023-12-20T06:25:45;101331.00;;;13.60
20736;BMP180;10528;52.124;5.196;2023-12-20T06:28:12;101328.00;;;13.60
20736;BMP180;10528;52.124;5.196;2023-12-20T06:30:41;101334.00;;;13.60
20736;BMP180;10528;52.124;5.196;2023-12-20T06:33:08;101334.00;;;13.70
20736;BMP180;10528;52.124;5.196;2023-12-20T06:35:36;101330.00;;;13.60
20736;BMP180;10528;52.124;5.196;2023-12-20T06:38:03;101329.00;;;13.60
20736;BMP180;10528;52.124;5.196;2023-12-20T06:40:30;101327.00;;;13.50
20736;BMP180;10528;52.124;5.196;2023-12-20T06:42:57;101331.00;;;13.50
20736;BMP180;10528;52.124;5.196;2023-12-20T06:45:38;101329.00;;;13.40
20736;BMP180;10528;52.124;5.196;2023-12-20T06:48:05;101324.00;;;13.60
20736;BMP180;10528;52.124;5.196;2023-12-20T06:50:32;101316.00;;;13.60
20736;BMP180;10528;52.124;5.196;2023-12-20T06:52:59;101319.00;;;13.60
20736;BMP180;10528;52.124;5.196;2023-12-20T06:55:26;101310.00;;;13.40
20736;BMP180;10528;52.124;5.196;2023-12-20T06:57:54;101311.00;;;13.60
20736;BMP180;10528;52.124;5.196;2023-12-20T07:00:21;101320.00;;;12.90
20736;BMP180;10528;52.124;5.196;2023-12-20T07:02:48;101310.00;;;13.30
20736;BMP180;10528;52.124;5.196;2023-12-20T07:05:17;101322.00;;;13.40
20736;BMP180;10528;52.124;5.196;2023-12-20T07:07:46;101322.00;;;13.60
20736;BMP180;10528;52.124;5.196;2023-12-20T07:10:14;101320.00;;;13.30
20736;BMP180;10528;52.124;5.196;2023-12-20T07:12:41;101306.00;;;13.50
20736;BMP180;10528;52.124;5.196;2023-12-20T07:15:08;101305.00;;;13.30
20736;BMP180;10528;52.124;5.196;2023-12-20T07:17:36;101306.00;;;13.50
20736;BMP180;10528;52.124;5.196;2023-12-20T07:20:03;101312.00;;;13.70
20736;BMP180;10528;52.124;5.196;2023-12-20T07:22:31;101299.00;;;13.40
20736;BMP180;10528;52.124;5.196;2023-12-20T07:24:59;101295.00;;;13.60
20736;BMP180;10528;52.124;5.196;2023-12-20T07:27:27;101280.00;;;13.60
20736;BMP180;10528;52.124;5.196;2023-12-20T07:29:54;101282.00;;;13.70
20736;BMP180;10528;52.124;5.196;2023-12-20T07:32:20;101288.00;;;13.80
20736;BMP180;10528;52.124;5.196;2023-12-20T07:34:47;101282.00;;;13.90
20736;BMP180;10528;52.124;5.196;2023-12-20T07:37:15;101283.00;;;13.90
20736;BMP180;10528;52.124;5.196;2023-12-20T07:39:42;101287.00;;;13.90
20736;BMP180;10528;52.124;5.196;2023-12-20T07:42:09;101281.00;;;13.90
20736;BMP180;10528;52.124;5.196;2023-12-20T07:44:36;101292.00;;;13.90
20736;BMP180;10528;52.124;5.196;2023-12-20T07:47:03;101305.00;;;13.90
20736;BMP180;10528;52.124;5.196;2023-12-20T07:49:32;101297.00;;;13.90
20736;BMP180;10528;52.124;5.196;2023-12-20T07:52:00;101311.00;;;13.90
20736;BMP180;10528;52.124;5.196;2023-12-20T07:54:27;101312.00;;;13.90
20736;BMP180;10528;52.124;5.196;2023-12-20T07:56:54;101306.00;;;13.90
20736;BMP180;10528;52.124;5.196;2023-12-20T07:59:20;101310.00;;;13.90
20736;BMP180;10528;52.124;5.196;2023-12-20T08:01:58;101307.00;;;13.90
20736;BMP180;10528;52.124;5.196;2023-12-20T08:04:25;101326.00;;;13.90
20736;BMP180;10528;52.124;5.196;2023-12-20T08:06:52;101334.00;;;14.00
20736;BMP180;10528;52.124;5.196;2023-12-20T08:09:19;101330.00;;;14.00
20736;BMP180;10528;52.124;5.196;2023-12-20T08:11:49;101332.00;;;14.00
20736;BMP180;10528;52.124;5.196;2023-12-20T08:14:16;101332.00;;;14.00
20736;BMP180;10528;52.124;5.196;2023-12-20T08:16:43;101322.00;;;14.00
20736;BMP180;10528;52.124;5.196;2023-12-20T08:19:10;101322.00;;;14.00
20736;BMP180;10528;52.124;5.196;2023-12-20T08:21:37;101328.00;;;14.00
20736;BMP180;10528;52.124;5.196;2023-12-20T08:24:05;101317.00;;;14.00
20736;BMP180;10528;52.124;5.196;2023-12-20T08:26:33;101305.00;;;14.00
20736;BMP180;10528;52.124;5.196;2023-12-20T08:29:00;101317.00;;;14.00
20736;BMP180;10528;52.124;5.196;2023-12-20T08:31:29;101308.00;;;14.00
20736;BMP180;10528;52.124;5.196;2023-12-20T08:33:56;101307.00;;;14.00
20736;BMP180;10528;52.124;5.196;2023-12-20T08:36:23;101300.00;;;14.00
20736;BMP180;10528;52.124;5.196;2023-12-20T08:38:51;101295.00;;;14.00
20736;BMP180;10528;52.124;5.196;2023-12-20T08:41:18;101295.00;;;14.00
20736;BMP180;10528;52.124;5.196;2023-12-20T08:43:45;101296.00;;;14.00
20736;BMP180;10528;52.124;5.196;2023-12-20T08:46:14;101301.00;;;14.00
20736;BMP180;10528;52.124;5.196;2023-12-20T08:48:41;101300.00;;;14.00
20736;BMP180;10528;52.124;5.196;2023-12-20T08:51:08;101299.00;;;14.00
20736;BMP180;10528;52.124;5.196;2023-12-20T08:53:36;101305.00;;;14.00
20736;BMP180;10528;52.124;5.196;2023-12-20T08:56:04;101312.00;;;14.00
20736;BMP180;10528;52.124;5.196;2023-12-20T08:58:30;101312.00;;;14.00
20736;BMP180;10528;52.124;5.196;2023-12-20T09:00:58;101308.00;;;14.10
20736;BMP180;10528;52.124;5.196;2023-12-20T09:03:25;101308.00;;;14.00
20736;BMP180;10528;52.124;5.196;2023-12-20T09:05:52;101309.00;;;14.00
20736;BMP180;10528;52.124;5.196;2023-12-20T09:08:19;101316.00;;;14.10
20736;BMP180;10528;52.124;5.196;2023-12-20T09:10:46;101301.00;;;14.10
20736;BMP180;10528;52.124;5.196;2023-12-20T09:13:13;101304.00;;;14.00
20736;BMP180;10528;52.124;5.196;2023-12-20T09:15:40;101306.00;;;14.00
20736;BMP180;10528;52.124;5.196;2023-12-20T09:18:07;101299.00;;;14.10
20736;BMP180;10528;52.124;5.196;2023-12-20T09:20:34;101294.00;;;14.10
20736;BMP180;10528;52.124;5.196;2023-12-20T09:23:02;101307.00;;;14.10
20736;BMP180;10528;52.124;5.196;2023-12-20T09:25:29;101309.00;;;14.10
20736;BMP180;10528;52.124;5.196;2023-12-20T09:27:57;101303.00;;;14.10
20736;BMP180;10528;52.124;5.196;2023-12-20T09:30:24;101306.00;;;14.20
20736;BMP180;10528;52.124;5.196;2023-12-20T09:32:57;101302.00;;;14.20
20736;BMP180;10528;52.124;5.196;2023-12-20T09:35:24;101306.00;;;14.20
20736;BMP180;10528;52.124;5.196;2023-12-20T09:37:51;101308.00;;;14.20
20736;BMP180;10528;52.124;5.196;2023-12-20T09:40:19;101308.00;;;14.20
20736;BMP180;10528;52.124;5.196;2023-12-20T09:43:04;101310.00;;;14.30
20736;BMP180;10528;52.124;5.196;2023-12-20T09:45:31;101312.00;;;14.30
20736;BMP180;10528;52.124;5.196;2023-12-20T09:48:00;101314.00;;;14.20
20736;BMP180;10528;52.124;5.196;2023-12-20T09:50:27;101326.00;;;14.30
20736;BMP180;10528;52.124;5.196;2023-12-20T09:52:57;101320.00;;;14.30
20736;BMP180;10528;52.124;5.196;2023-12-20T09:55:27;101318.00;;;14.30
20736;BMP180;10528;52.124;5.196;2023-12-20T09:57:56;101317.00;;;14.40
20736;BMP180;10528;52.124;5.196;2023-12-20T10:00:23;101321.00;;;14.40
20736;BMP180;10528;52.124;5.196;2023-12-20T10:03:00;101327.00;;;14.40
20736;BMP180;10528;52.124;5.196;2023-12-20T10:05:29;101327.00;;;14.40
20736;BMP180;10528;52.124;5.196;2023-12-20T10:07:58;101327.00;;;14.40
20736;BMP180;10528;52.124;5.196;2023-12-20T10:10:27;101331.00;;;14.50
20736;BMP180;10528;52.124;5.196;2023-12-20T10:13:10;101346.00;;;14.50
20736;BMP180;10528;52.124;5.196;2023-12-20T10:15:38;101336.00;;;14.50
20736;BMP180;10528;52.124;5.196;2023-12-20T10:18:06;101324.00;;;14.50
20736;BMP180;10528;52.124;5.196;2023-12-20T10:20:33;101335.00;;;14.50
20736;BMP180;10528;52.124;5.196;2023-12-20T10:23:01;101336.00;;;14.50
20736;BMP180;10528;52.124;5.196;2023-12-20T10:25:28;101334.00;;;14.50
20736;BMP180;10528;52.124;5.196;2023-12-20T10:28:13;101324.00;;;14.60
20736;BMP180;10528;52.124;5.196;2023-12-20T10:30:41;101320.00;;;14.60
20736;BMP180;10528;52.124;5.196;2023-12-20T10:33:10;101318.00;;;14.60
20736;BMP180;10528;52.124;5.196;2023-12-20T10:35:39;101318.00;;;14.60
20736;BMP180;10528;52.124;5.196;2023-12-20T10:38:12;101317.00;;;14.70
20736;BMP180;10528;52.124;5.196;2023-12-20T10:40:40;101313.00;;;14.70
20736;BMP180;10528;52.124;5.196;2023-12-20T10:43:09;101317.00;;;14.70
20736;BMP180;10528;52.124;5.196;2023-12-20T10:45:37;101317.00;;;14.70
20736;BMP180;10528;52.124;5.196;2023-12-20T10:48:05;101314.00;;;14.70
20736;BMP180;10528;52.124;5.196;2023-12-20T10:50:34;101292.00;;;14.70
20736;BMP180;10528;52.124;5.196;2023-12-20T10:53:03;101311.00;;;14.80
20736;BMP180;10528;52.124;5.196;2023-12-20T10:55:30;101313.00;;;14.80
20736;BMP180;10528;52.124;5.196;2023-12-20T10:58:04;101309.00;;;14.80
20736;BMP180;10528;52.124;5.196;2023-12-20T11:00:39;101305.00;;;14.80
20736;BMP180;10528;52.124;5.196;2023-12-20T11:03:10;101302.00;;;14.90
20736;BMP180;10528;52.124;5.196;2023-12-20T11:05:58;101293.00;;;14.90
20736;BMP180;10528;52.124;5.196;2023-12-20T11:08:53;101295.00;;;14.90
20736;BMP180;10528;52.124;5.196;2023-12-20T11:11:37;101284.00;;;14.90
20736;BMP180;10528;52.124;5.196;2023-12-20T11:14:29;101278.00;;;15.00
20736;BMP180;10528;52.124;5.196;2023-12-20T11:17:09;101280.00;;;15.00
20736;BMP180;10528;52.124;5.196;2023-12-20T11:19:43;101269.00;;;15.10
20736;BMP180;10528;52.124;5.196;2023-12-20T11:22:31;101281.00;;;15.10
20736;BMP180;10528;52.124;5.196;2023-12-20T11:25:10;101271.00;;;15.10
20736;BMP180;10528;52.124;5.196;2023-12-20T11:27:41;101275.00;;;15.10
20736;BMP180;10528;52.124;5.196;2023-12-20T11:30:11;101275.00;;;15.20
20736;BMP180;10528;52.124;5.196;2023-12-20T11:32:40;101274.00;;;15.20
20736;BMP180;10528;52.124;5.196;2023-12-20T11:37:37;101275.00;;;15.20
20736;BMP180;10528;52.124;5.196;2023-12-20T11:40:12;101264.00;;;15.10
20736;BMP180;10528;52.124;5.196;2023-12-20T11:42:49;101258.00;;;15.20
20736;BMP180;10528;52.124;5.196;2023-12-20T11:45:20;101254.00;;;15.20
20736;BMP180;10528;52.124;5.196;2023-12-20T11:47:51;101254.00;;;15.20
20736;BMP180;10528;52.124;5.196;2023-12-20T11:50:19;101245.00;;;15.20
20736;BMP180;10528;52.124;5.196;2023-12-20T11:52:48;101244.00;;;15.20
20736;BMP180;10528;52.124;5.196;2023-12-20T11:55:15;101230.00;;;15.20
20736;BMP180;10528;52.124;5.196;2023-12-20T11:57:44;101230.00;;;15.30
20736;BMP180;10528;52.124;5.196;2023-12-20T12:00:14;101246.00;;;15.30
20736;BMP180;10528;52.124;5.196;2023-12-20T12:02:41;101243.00;;;15.30
20736;BMP180;10528;52.124;5.196;2023-12-20T12:05:10;101228.00;;;15.30
20736;BMP180;10528;52.124;5.196;2023-12-20T12:07:37;101240.00;;;15.30
20736;BMP180;10528;52.124;5.196;2023-12-20T12:10:05;101244.00;;;15.30
20736;BMP180;10528;52.124;5.196;2023-12-20T12:12:32;101253.00;;;15.30
20736;BMP180;10528;52.124;5.196;2023-12-20T12:14:59;101253.00;;;15.30
20736;BMP180;10528;52.124;5.196;2023-12-20T12:17:26;101250.00;;;15.30
20736;BMP180;10528;52.124;5.196;2023-12-20T12:20:04;101259.00;;;15.30
20736;BMP180;10528;52.124;5.196;2023-12-20T12:22:31;101254.00;;;15.30
20736;BMP180;10528;52.124;5.196;2023-12-20T12:25:10;101255.00;;;15.30
20736;BMP180;10528;52.124;5.196;2023-12-20T12:27:42;101246.00;;;15.40
20736;BMP180;10528;52.124;5.196;2023-12-20T12:30:10;101229.00;;;15.40
20736;BMP180;10528;52.124;5.196;2023-12-20T12:32:39;101231.00;;;15.40
20736;BMP180;10528;52.124;5.196;2023-12-20T12:35:08;101219.00;;;15.40
20736;BMP180;10528;52.124;5.196;2023-12-20T12:37:39;101223.00;;;15.40
20736;BMP180;10528;52.124;5.196;2023-12-20T12:40:11;101221.00;;;15.40
20736;BMP180;10528;52.124;5.196;2023-12-20T12:42:39;101218.00;;;15.40
20736;BMP180;10528;52.124;5.196;2023-12-20T12:45:08;101201.00;;;15.40
20736;BMP180;10528;52.124;5.196;2023-12-20T12:47:35;101203.00;;;15.40
20736;BMP180;10528;52.124;5.196;2023-12-20T12:50:02;101213.00;;;15.40
20736;BMP180;10528;52.124;5.196;2023-12-20T12:52:31;101200.00;;;15.40
20736;BMP180;10528;52.124;5.196;2023-12-20T12:54:59;101205.00;;;15.40
20736;BMP180;10528;52.124;5.196;2023-12-20T12:57:26;101199.00;;;15.40
20736;BMP180;10528;52.124;5.196;2023-12-20T12:59:53;101190.00;;;15.40
20736;BMP180;10528;52.124;5.196;2023-12-20T13:02:20;101186.00;;;15.40
20736;BMP180;10528;52.124;5.196;2023-12-20T13:04:47;101186.00;;;15.30
20736;BMP180;10528;52.124;5.196;2023-12-20T13:07:14;101180.00;;;15.30
20736;BMP180;10528;52.124;5.196;2023-12-20T13:09:41;101170.00;;;15.30
20736;BMP180;10528;52.124;5.196;2023-12-20T13:12:08;101174.00;;;15.30
20736;BMP180;10528;52.124;5.196;2023-12-20T13:14:36;101171.00;;;15.30
20736;BMP180;10528;52.124;5.196;2023-12-20T13:17:07;101164.00;;;15.30
20736;BMP180;10528;52.124;5.196;2023-12-20T13:19:34;101156.00;;;15.30
20736;BMP180;10528;52.124;5.196;2023-12-20T13:22:02;101155.00;;;15.30
20736;BMP180;10528;52.124;5.196;2023-12-20T13:24:29;101148.00;;;15.30
20736;BMP180;10528;52.124;5.196;2023-12-20T13:26:56;101153.00;;;15.30
20736;BMP180;10528;52.124;5.196;2023-12-20T13:29:24;101143.00;;;15.30
20736;BMP180;10528;52.124;5.196;2023-12-20T13:31:54;101141.00;;;15.30
20736;BMP180;10528;52.124;5.196;2023-12-20T13:34:21;101133.00;;;15.30
20736;BMP180;10528;52.124;5.196;2023-12-20T13:36:48;101131.00;;;15.30
20736;BMP180;10528;52.124;5.196;2023-12-20T13:39:17;101129.00;;;15.30
20736;BMP180;10528;52.124;5.196;2023-12-20T13:41:45;101121.00;;;15.30
20736;BMP180;10528;52.124;5.196;2023-12-20T13:44:12;101119.00;;;15.40
20736;BMP180;10528;52.124;5.196;2023-12-20T13:46:40;101128.00;;;15.40
20736;BMP180;10528;52.124;5.196;2023-12-20T13:49:08;101127.00;;;15.40
20736;BMP180;10528;52.124;5.196;2023-12-20T13:51:35;101132.00;;;15.40
20736;BMP180;10528;52.124;5.196;2023-12-20T13:54:02;101129.00;;;15.40
20736;BMP180;10528;52.124;5.196;2023-12-20T13:56:29;101125.00;;;15.40
20736;BMP180;10528;52.124;5.196;2023-12-20T13:58:56;101128.00;;;15.40
20736;BMP180;10528;52.124;5.196;2023-12-20T14:01:23;101122.00;;;15.40
20736;BMP180;10528;52.124;5.196;2023-12-20T14:03:51;101127.00;;;15.50
20736;BMP180;10528;52.124;5.196;2023-12-20T14:06:18;101120.00;;;15.50